Аэропорт: Витебск Восточный. Витебск

ICAO: UMII

METAR:
2018/07/16 16:00
UMII 161600Z 04004G07MPS 6000 -SHRA BKN021CB 18/17 Q1009 R05/290050 TEMPO 2100 BKN005
METAR:
2018/01/28 15:24
TAF TAF UMII 281405Z 2815/2924 19004G09MPS 2000 SN BR OVC005 
      TEMPO 2815/2824 0500 FZDZ FZFG VV002